Time;durP1;ratioP1;P1;durP2;ratioP2;P2;SDS_P1;SDS_P2;PMS_P1;PMS_P2;Temp;Humidity;BMP_temperature;BMP_pressure;BME280_temperature;BME280_humidity;BME280_pressure;Samples;Min_cycle;Max_cycle;Signal;HPM_P1;HPM_P2
2023/12/26 00:00:28;;;;;;;4.28;1.40;;;;;;;-146.25;100.00;52601.38;2089745;28;20041;-73
2023/12/26 00:01:30;;;;;;;4.80;1.33;;;;;;;-146.25;100.00;52583.13;2089837;28;20180;-73
2023/12/26 00:02:32;;;;;;;6.20;1.92;;;;;;;-146.25;100.00;52627.75;2089430;28;25402;-73
2023/12/26 00:03:33;;;;;;;7.32;2.03;;;;;;;-146.25;100.00;52627.75;2089714;28;20999;-73
2023/12/26 00:04:35;;;;;;;5.20;1.50;;;;;;;-146.25;100.00;52639.91;2089463;28;25273;-73
2023/12/26 00:05:39;;;;;;;9.32;1.65;;;;;;;-146.25;100.00;52617.59;2089181;28;21798;-72
2023/12/26 00:06:44;;;;;;;6.63;1.65;;;;;;;-146.25;100.00;52613.53;2089440;28;20038;-73
2023/12/26 00:07:46;;;;;;;5.78;1.40;;;;;;;-146.25;100.00;52619.63;2088818;28;24031;-72
2023/12/26 00:08:48;;;;;;;5.05;1.27;;;;;;;-146.25;100.00;52575.00;2089425;28;20038;-72
2023/12/26 00:09:52;;;;;;;4.28;1.00;;;;;;;-146.25;100.00;52593.25;2089433;28;20029;-72
2023/12/26 00:10:55;;;;;;;4.50;1.20;;;;;;;-146.25;100.00;52593.25;2089813;28;20037;-73
2023/12/26 00:11:57;;;;;;;5.45;1.63;;;;;;;-146.25;100.00;52605.44;2089158;28;20099;-73
2023/12/26 00:13:00;;;;;;;4.43;1.17;;;;;;;-146.25;100.00;52585.16;2089474;28;25301;-72
2023/12/26 00:14:04;;;;;;;3.67;1.40;;;;;;;-146.25;100.00;52566.91;2088973;28;20385;-72
2023/12/26 00:15:10;;;;;;;2.33;1.30;;;;;;;-146.25;100.00;52593.25;2089682;28;24819;-73
2023/12/26 00:16:11;;;;;;;5.25;1.17;;;;;;;-146.25;100.00;52607.47;2088996;28;20995;-71
2023/12/26 00:17:13;;;;;;;4.15;1.20;;;;;;;-146.25;100.00;52652.06;2089593;28;21372;-73
2023/12/26 00:18:16;;;;;;;2.38;1.15;;;;;;;-146.25;100.00;52629.75;2089176;28;23378;-72
2023/12/26 00:19:19;;;;;;;4.32;1.33;;;;;;;-146.25;100.00;52581.09;2089594;28;20045;-71
2023/12/26 00:20:23;;;;;;;6.72;1.60;;;;;;;-146.25;100.00;52611.50;2089307;28;21161;-73
2023/12/26 00:21:25;;;;;;;4.78;1.40;;;;;;;-146.25;100.00;52595.28;2089044;28;23119;-73
2023/12/26 00:22:26;;;;;;;3.25;1.10;;;;;;;-146.25;100.00;52579.06;2089260;28;21226;-72
2023/12/26 00:23:28;;;;;;;2.83;1.70;;;;;;;-146.25;100.00;52601.38;2089257;28;24025;-72
2023/12/26 00:24:33;;;;;;;5.43;1.95;;;;;;;-146.25;100.00;52613.53;2089388;28;20810;-72
2023/12/26 00:25:34;;;;;;;5.88;2.45;;;;;;;-146.25;100.00;52601.38;2089215;28;22520;-73
2023/12/26 00:26:38;;;;;;;5.43;2.00;;;;;;;-146.25;100.00;52611.50;2089030;28;21577;-71
2023/12/26 00:27:42;;;;;;;6.13;2.05;;;;;;;-146.25;100.00;52595.28;2088905;28;20042;-73
2023/12/26 00:28:44;;;;;;;3.42;1.77;;;;;;;-146.25;100.00;52601.38;2088793;28;20025;-74
2023/12/26 00:29:46;;;;;;;4.13;1.95;;;;;;;-146.25;100.00;52579.06;2089120;28;20829;-73
2023/12/26 00:30:47;;;;;;;3.15;1.77;;;;;;;-146.25;100.00;52631.78;2089173;28;20347;-72
2023/12/26 00:31:49;;;;;;;3.30;1.90;;;;;;;-146.25;100.00;52587.19;2088731;28;20176;-73
2023/12/26 00:32:51;;;;;;;4.50;1.70;;;;;;;-146.25;100.00;52621.66;2088908;28;20042;-72
2023/12/26 00:33:53;;;;;;;4.15;1.50;;;;;;;-146.25;100.00;52617.59;2089219;28;20092;-73
2023/12/26 00:34:58;;;;;;;4.03;1.27;;;;;;;-146.25;100.00;52613.53;2089110;28;20119;-73
2023/12/26 00:36:00;;;;;;;3.88;1.50;;;;;;;-146.25;100.00;52629.75;2080674;28;20050;-73
2023/12/26 00:37:02;;;;;;;4.05;1.33;;;;;;;-146.25;100.00;52591.25;2081010;28;20926;-73
2023/12/26 00:38:05;;;;;;;2.40;1.33;;;;;;;-146.25;100.00;52589.22;2089711;28;20927;-73
2023/12/26 00:39:07;;;;;;;3.83;1.17;;;;;;;-146.25;100.00;52605.44;2088839;28;20040;-72
2023/12/26 00:40:12;;;;;;;3.80;1.00;;;;;;;-146.25;100.00;52635.84;2089408;28;20140;-73
2023/12/26 00:41:14;;;;;;;3.60;1.13;;;;;;;-146.25;100.00;52593.25;2089383;28;20041;-73
2023/12/26 00:42:16;;;;;;;2.72;0.77;;;;;;;-146.25;100.00;52577.03;2089429;28;20045;-73
2023/12/26 00:43:18;;;;;;;2.55;0.80;;;;;;;-146.25;100.00;52635.84;2096442;28;21853;-73
2023/12/26 00:44:20;;;;;;;1.92;0.70;;;;;;;-146.25;100.00;52635.84;2097305;28;20029;-72
2023/12/26 00:45:22;;;;;;;2.05;0.70;;;;;;;-146.25;100.00;52579.06;2089220;28;20057;-73
2023/12/26 00:46:26;;;;;;;1.10;0.68;;;;;;;-146.25;100.00;52583.13;2089524;28;20034;-73
2023/12/26 00:47:33;;;;;;;1.65;0.50;;;;;;;-146.25;100.00;52597.31;2088741;28;20046;-73
2023/12/26 00:48:38;;;;;;;1.83;0.40;;;;;;;-146.25;100.00;52645.97;2080983;28;20045;-73
2023/12/26 00:49:41;;;;;;;3.28;0.70;;;;;;;-146.25;100.00;52581.09;2088740;28;20124;-72
2023/12/26 00:50:43;;;;;;;2.33;0.80;;;;;;;-146.25;100.00;52609.50;2096454;28;20041;-72
2023/12/26 00:51:45;;;;;;;1.88;0.50;;;;;;;-146.25;100.00;52599.34;2089482;28;20081;-72
2023/12/26 00:52:46;;;;;;;1.67;0.60;;;;;;;-146.25;100.00;52591.25;2089173;28;20387;-73
2023/12/26 00:53:48;;;;;;;1.80;0.70;;;;;;;-146.25;100.00;52639.91;2087901;28;20041;-73
2023/12/26 00:54:50;;;;;;;1.40;0.70;;;;;;;-146.25;100.00;52621.66;2088645;28;20038;-73
2023/12/26 00:55:53;;;;;;;2.05;0.77;;;;;;;-146.25;100.00;52625.72;2089216;28;20037;-73
2023/12/26 00:56:56;;;;;;;1.73;1.00;;;;;;;-146.25;100.00;52599.34;2089230;28;20041;-73
2023/12/26 00:57:58;;;;;;;2.92;1.20;;;;;;;-146.25;100.00;52579.06;2089062;28;20033;-73
2023/12/26 00:58:59;;;;;;;3.17;1.02;;;;;;;-146.25;100.00;52595.28;2089023;28;20909;-64
2023/12/26 01:00:06;;;;;;;2.55;1.10;;;;;;;-146.25;100.00;52648.00;2089319;28;20051;-73
2023/12/26 01:01:08;;;;;;;1.35;0.68;;;;;;;-146.25;100.00;52613.53;2088242;28;20037;-72
2023/12/26 01:02:10;;;;;;;3.35;0.90;;;;;;;-146.25;100.00;52637.88;2089406;28;20913;-72
2023/12/26 01:03:11;;;;;;;1.65;0.65;;;;;;;-146.25;100.00;52637.88;2089203;28;20115;-73
2023/12/26 01:04:13;;;;;;;2.13;0.65;;;;;;;-146.25;100.00;52619.63;2089131;28;20907;-73
2023/12/26 01:05:16;;;;;;;1.90;0.57;;;;;;;-146.25;100.00;52595.28;2089146;28;23496;-73
2023/12/26 01:06:17;;;;;;;1.25;0.60;;;;;;;-146.25;100.00;52617.59;2089177;28;20034;-73
2023/12/26 01:07:19;;;;;;;1.83;0.52;;;;;;;-146.25;100.00;52570.97;2089186;28;20068;-71
2023/12/26 01:08:21;;;;;;;1.30;0.47;;;;;;;-146.25;100.00;52593.25;2096669;28;20190;-72
2023/12/26 01:09:23;;;;;;;1.30;0.40;;;;;;;-146.25;100.00;52609.50;2096686;28;20909;-73
2023/12/26 01:10:25;;;;;;;1.05;0.30;;;;;;;-146.25;100.00;52623.69;2088322;28;20266;-73
2023/12/26 01:11:26;;;;;;;1.92;0.40;;;;;;;-146.25;100.00;52579.06;2088596;28;20083;-72
2023/12/26 01:12:29;;;;;;;2.55;0.22;;;;;;;-146.25;100.00;52599.34;2096563;28;20068;-73
2023/12/26 01:13:34;;;;;;;1.73;0.40;;;;;;;-146.25;100.00;52605.44;2096889;28;20033;-73
2023/12/26 01:14:37;;;;;;;1.35;0.30;;;;;;;-146.25;100.00;52605.44;2095863;28;20041;-73
2023/12/26 01:15:39;;;;;;;1.10;0.20;;;;;;;-146.25;100.00;52575.00;2088017;28;20178;-73
2023/12/26 01:16:43;;;;;;;2.25;0.20;;;;;;;-146.25;100.00;52615.56;2088548;28;20131;-72
2023/12/26 01:17:47;;;;;;;1.00;0.30;;;;;;;-146.25;100.00;52615.56;2096557;28;20778;-73
2023/12/26 01:18:49;;;;;;;1.60;0.28;;;;;;;-146.25;100.00;52603.41;2096800;28;20033;-72
2023/12/26 01:19:51;;;;;;;1.20;0.25;;;;;;;-146.25;100.00;52623.69;2096915;28;20052;-73
2023/12/26 01:20:55;;;;;;;0.95;0.30;;;;;;;-146.25;100.00;52615.56;2089031;28;20160;-73
2023/12/26 01:21:57;;;;;;;2.05;0.20;;;;;;;-146.25;100.00;52623.69;2089542;28;20046;-73
2023/12/26 01:22:59;;;;;;;1.13;0.30;;;;;;;-146.25;100.00;52585.16;2096816;28;20175;-71
2023/12/26 01:24:01;;;;;;;0.73;0.20;;;;;;;-146.25;100.00;52623.69;2096661;28;20156;-73
2023/12/26 01:25:05;;;;;;;1.58;0.15;;;;;;;-146.25;100.00;52613.53;2096679;28;20894;-74
2023/12/26 01:26:07;;;;;;;1.40;0.20;;;;;;;-146.25;100.00;52631.78;2088908;28;20044;-72
2023/12/26 01:27:12;;;;;;;1.02;0.20;;;;;;;-146.25;100.00;52585.16;2088385;28;20299;-71
2023/12/26 01:28:15;;;;;;;1.50;0.22;;;;;;;-146.25;100.00;52656.13;2088004;28;20390;-72
2023/12/26 01:29:21;;;;;;;1.23;0.20;;;;;;;-146.25;100.00;52629.75;2087971;28;20085;-73
2023/12/26 01:30:23;;;;;;;1.30;0.20;;;;;;;-146.25;100.00;52613.53;2081148;28;20045;-72
2023/12/26 01:31:25;;;;;;;0.65;0.10;;;;;;;-146.25;100.00;52635.84;2088325;28;20080;-73
2023/12/26 01:32:27;;;;;;;0.77;0.20;;;;;;;-146.25;100.00;52615.56;2087759;28;20716;-73
2023/12/26 01:33:29;;;;;;;1.95;0.13;;;;;;;-146.25;100.00;52609.50;2088173;28;20838;-71
2023/12/26 01:34:33;;;;;;;0.40;0.20;;;;;;;-146.25;100.00;52611.50;2087847;28;20045;-73
2023/12/26 01:35:35;;;;;;;0.47;0.10;;;;;;;-146.25;100.00;52605.44;2088306;28;20902;-72
2023/12/26 01:36:37;;;;;;;0.90;0.20;;;;;;;-146.25;100.00;52603.41;2080022;28;20162;-72
2023/12/26 01:37:40;;;;;;;0.70;0.10;;;;;;;-146.25;100.00;52660.19;2080673;28;20139;-71
2023/12/26 01:38:41;;;;;;;1.60;0.20;;;;;;;-146.25;100.00;52631.78;2096438;28;20933;-72
2023/12/26 01:39:43;;;;;;;0.82;0.20;;;;;;;-146.25;100.00;52652.06;2096297;28;20049;-73
2023/12/26 01:40:45;;;;;;;0.95;0.20;;;;;;;-146.25;100.00;52627.75;2096488;28;20042;-73
2023/12/26 01:41:51;;;;;;;2.15;0.17;;;;;;;-146.25;100.00;52643.97;2096814;28;20044;-73
2023/12/26 01:42:53;;;;;;;0.95;0.10;;;;;;;-146.25;100.00;52617.59;2096252;28;20071;-72
2023/12/26 01:43:55;;;;;;;3.00;0.20;;;;;;;-146.25;100.00;52613.53;2096854;28;20646;-73
2023/12/26 01:44:57;;;;;;;0.95;0.10;;;;;;;-146.25;100.00;52603.41;2087917;28;20960;-71
2023/12/26 01:45:59;;;;;;;0.57;0.20;;;;;;;-146.25;100.00;52623.69;2096296;28;20045;-69
2023/12/26 01:47:01;;;;;;;0.45;0.20;;;;;;;-146.25;100.00;52611.50;2096411;28;20041;-72
2023/12/26 01:48:07;;;;;;;1.13;0.10;;;;;;;-146.25;100.00;52627.75;2087753;28;20042;-73
2023/12/26 01:49:10;;;;;;;0.70;0.10;;;;;;;-146.25;100.00;52573.00;2080865;28;20100;-72
2023/12/26 01:50:14;;;;;;;0.52;0.10;;;;;;;-146.25;100.00;52623.69;2087780;28;20911;-73
2023/12/26 01:51:19;;;;;;;0.98;0.10;;;;;;;-146.25;100.00;52623.69;2088631;28;20030;-73
2023/12/26 01:52:24;;;;;;;0.47;0.10;;;;;;;-146.25;100.00;52623.69;2087872;28;20037;-73
2023/12/26 01:53:26;;;;;;;1.08;0.10;;;;;;;-146.25;100.00;52639.91;2089023;28;20079;-74
2023/12/26 01:54:31;;;;;;;0.85;0.10;;;;;;;-146.25;100.00;52619.63;2088587;28;21000;-73
2023/12/26 01:55:36;;;;;;;0.77;0.20;;;;;;;-146.25;100.00;52609.50;2088710;28;20152;-73
2023/12/26 01:56:39;;;;;;;0.88;0.10;;;;;;;-146.25;100.00;52591.25;2087927;28;20183;-73
2023/12/26 01:57:41;;;;;;;2.35;0.10;;;;;;;-146.25;100.00;52611.50;2080656;28;20070;-73
2023/12/26 01:58:48;;;;;;;0.30;0.10;;;;;;;-146.25;100.00;52591.25;2088630;28;20244;-72
2023/12/26 01:59:50;;;;;;;0.30;0.10;;;;;;;-146.25;100.00;52635.84;2087765;28;20037;-73
2023/12/26 02:00:52;;;;;;;0.98;0.10;;;;;;;-146.25;100.00;52643.97;2088661;28;20045;-72
2023/12/26 02:01:54;;;;;;;2.05;0.10;;;;;;;-146.25;100.00;52609.50;2088297;28;20037;-72
2023/12/26 02:02:56;;;;;;;0.65;0.20;;;;;;;-146.25;100.00;52605.44;2087931;28;20084;-72
2023/12/26 02:03:59;;;;;;;1.73;0.10;;;;;;;-146.25;100.00;52599.34;2089387;28;20164;-73
2023/12/26 02:05:02;;;;;;;0.98;0.10;;;;;;;-146.25;100.00;52629.75;2088612;28;20037;-72
2023/12/26 02:06:05;;;;;;;1.30;0.20;;;;;;;-146.25;100.00;52597.31;2089055;28;20041;-72
2023/12/26 02:07:10;;;;;;;1.15;0.10;;;;;;;-146.25;100.00;52615.56;2080302;28;20093;-72
2023/12/26 02:08:13;;;;;;;3.20;0.20;;;;;;;-146.25;100.00;52599.34;2080746;28;20822;-72
2023/12/26 02:09:18;;;;;;;0.50;0.20;;;;;;;-146.25;100.00;52611.50;2095903;28;20041;-72
2023/12/26 02:10:20;;;;;;;0.20;0.10;;;;;;;-146.25;100.00;52656.13;2088896;28;20926;-73
2023/12/26 02:11:22;;;;;;;0.82;0.13;;;;;;;-146.25;100.00;52599.34;2087792;28;20068;-72
2023/12/26 02:12:25;;;;;;;0.20;0.10;;;;;;;-146.25;100.00;52633.81;2088432;28;20092;-73
2023/12/26 02:13:28;;;;;;;0.85;0.10;;;;;;;-146.25;100.00;52611.50;2095920;28;20060;-72
2023/12/26 02:14:33;;;;;;;0.40;0.10;;;;;;;-146.25;100.00;52641.94;2087823;28;20206;-72
2023/12/26 02:15:35;;;;;;;0.80;0.10;;;;;;;-146.25;100.00;52635.84;2088118;28;20296;-73
2023/12/26 02:16:41;;;;;;;0.50;0.17;;;;;;;-146.25;100.00;52609.50;2088307;28;20041;-71
2023/12/26 02:17:45;;;;;;;0.88;0.10;;;;;;;-146.25;100.00;52607.47;2080711;28;20914;-73
2023/12/26 02:18:48;;;;;;;1.58;0.30;;;;;;;-146.25;100.00;52570.97;2088002;28;20452;-72
2023/12/26 02:19:50;;;;;;;1.48;0.20;;;;;;;-146.25;100.00;52631.78;2096141;28;20080;-73
2023/12/26 02:20:52;;;;;;;0.50;0.20;;;;;;;-146.25;100.00;52599.34;2096164;28;21055;-73
2023/12/26 02:21:55;;;;;;;1.50;0.10;;;;;;;-146.25;100.00;52607.47;2087848;28;20948;-73
2023/12/26 02:22:58;;;;;;;1.05;0.10;;;;;;;-146.25;100.00;52597.31;2088210;28;20922;-73
2023/12/26 02:24:03;;;;;;;0.93;0.20;;;;;;;-146.25;100.00;52579.06;2095479;28;20037;-73
2023/12/26 02:25:08;;;;;;;1.00;0.17;;;;;;;-146.25;100.00;52593.25;2096296;28;20041;-74
2023/12/26 02:26:14;;;;;;;0.60;0.10;;;;;;;-146.25;100.00;52595.28;2095476;28;20037;-73
2023/12/26 02:27:22;;;;;;;1.25;0.30;;;;;;;-146.25;100.00;52621.66;2088350;28;20442;-73
2023/12/26 02:28:25;;;;;;;0.85;0.15;;;;;;;-146.25;100.00;52615.56;2088489;28;20159;-73
2023/12/26 02:29:30;;;;;;;0.50;0.20;;;;;;;-146.25;100.00;52558.78;2088425;28;20126;-73
2023/12/26 02:30:36;;;;;;;1.27;0.20;;;;;;;-146.25;100.00;52631.78;2087814;28;20088;-73
2023/12/26 02:31:40;;;;;;;0.90;0.20;;;;;;;-146.25;100.00;52587.19;2080759;28;23129;-73
2023/12/26 02:32:46;;;;;;;0.50;0.20;;;;;;;-146.25;100.00;52583.13;2080933;28;20796;-73
2023/12/26 02:33:48;;;;;;;0.35;0.20;;;;;;;-146.25;100.00;52597.31;2080391;28;20931;-73
2023/12/26 02:34:55;;;;;;;0.52;0.20;;;;;;;-146.25;100.00;52579.06;2088141;28;20036;-73
2023/12/26 02:36:02;;;;;;;1.27;0.20;;;;;;;-146.25;100.00;52617.59;2088904;28;20053;-72
2023/12/26 02:37:03;;;;;;;0.63;0.20;;;;;;;-146.25;100.00;52599.34;2087935;28;20104;-72
2023/12/26 02:38:05;;;;;;;1.00;0.20;;;;;;;-146.25;100.00;52619.63;2080017;28;20096;-72
2023/12/26 02:39:09;;;;;;;0.73;0.20;;;;;;;-146.25;100.00;52591.25;2087825;28;20037;-73
2023/12/26 02:40:12;;;;;;;0.80;0.10;;;;;;;-146.25;100.00;52587.19;2088566;28;20921;-73
2023/12/26 02:41:14;;;;;;;0.80;0.13;;;;;;;-146.25;100.00;52623.69;2079623;28;20060;-73
2023/12/26 02:42:24;;;;;;;1.35;0.15;;;;;;;-146.25;100.00;52593.25;2079882;28;20902;-72
2023/12/26 02:43:26;;;;;;;0.90;0.17;;;;;;;-146.25;100.00;52597.31;2095399;28;20029;-72
2023/12/26 02:44:30;;;;;;;0.73;0.20;;;;;;;-146.25;100.00;52603.41;2087779;28;20701;-73
2023/12/26 02:45:32;;;;;;;0.82;0.20;;;;;;;-146.25;100.00;52554.75;2088545;28;20037;-73
2023/12/26 02:46:35;;;;;;;0.60;0.20;;;;;;;-146.25;100.00;52615.56;2088293;28;20209;-72
2023/12/26 02:47:39;;;;;;;1.05;0.10;;;;;;;-146.25;100.00;52627.75;2079777;28;20046;-73
2023/12/26 02:48:41;;;;;;;1.50;0.20;;;;;;;-146.25;100.00;52583.13;2080242;28;20892;-72
2023/12/26 02:49:43;;;;;;;0.85;0.20;;;;;;;-146.25;100.00;52570.97;2088574;28;20077;-72
2023/12/26 02:50:50;;;;;;;0.80;0.20;;;;;;;-146.25;100.00;52564.88;2088615;28;20099;-72
2023/12/26 02:51:54;;;;;;;2.10;0.20;;;;;;;-146.25;100.00;52607.47;2088968;28;20049;-72
2023/12/26 02:52:56;;;;;;;1.73;0.30;;;;;;;-146.25;100.00;52615.56;2088377;28;20051;-72
2023/12/26 02:53:58;;;;;;;0.75;0.13;;;;;;;-146.25;100.00;52617.59;2088797;28;20049;-73
2023/12/26 02:55:00;;;;;;;1.10;0.20;;;;;;;-146.25;100.00;52627.75;2095769;28;21973;-71
2023/12/26 02:56:04;;;;;;;1.42;0.10;;;;;;;-146.25;100.00;52611.50;2095796;28;20045;-73
2023/12/26 02:57:06;;;;;;;1.83;0.20;;;;;;;-146.25;100.00;52583.13;2088572;28;20944;-73
2023/12/26 02:58:13;;;;;;;1.20;0.30;;;;;;;-146.25;100.00;52621.66;2095624;28;23928;-72
2023/12/26 02:59:15;;;;;;;2.13;0.22;;;;;;;-146.25;100.00;52605.44;2095398;28;20082;-73
2023/12/26 03:00:17;;;;;;;1.05;0.20;;;;;;;-146.25;100.00;52615.56;2086445;28;20037;-72
2023/12/26 03:01:19;;;;;;;2.90;0.20;;;;;;;-146.25;100.00;52621.66;2079646;28;20038;-72
2023/12/26 03:02:22;;;;;;;1.40;0.20;;;;;;;-146.25;100.00;52595.28;2079547;28;20919;-71
2023/12/26 03:03:23;;;;;;;2.15;0.20;;;;;;;-146.25;100.00;52615.56;2087634;28;20045;-72
2023/12/26 03:04:26;;;;;;;1.75;0.20;;;;;;;-146.25;100.00;52615.56;2087888;28;20088;-73
2023/12/26 03:05:28;;;;;;;3.58;0.28;;;;;;;-146.25;100.00;52635.84;2079400;28;20054;-72
2023/12/26 03:06:29;;;;;;;3.72;0.38;;;;;;;-146.25;100.00;52593.25;2087500;28;24379;-72
2023/12/26 03:07:32;;;;;;;1.95;0.20;;;;;;;-146.25;100.00;52613.53;2087632;28;20127;-72
2023/12/26 03:08:34;;;;;;;1.00;0.20;;;;;;;-146.25;100.00;52607.47;2078997;28;20053;-73
2023/12/26 03:09:36;;;;;;;1.83;0.20;;;;;;;-146.25;100.00;52641.94;2079528;28;20911;-72
2023/12/26 03:10:37;;;;;;;2.30;0.20;;;;;;;-146.25;100.00;52611.50;2088196;28;20152;-72
2023/12/26 03:11:39;;;;;;;1.63;0.10;;;;;;;-146.25;100.00;52579.06;2088461;28;20307;-71
2023/12/26 03:12:41;;;;;;;1.20;0.20;;;;;;;-146.25;100.00;52645.97;2088696;28;20057;-71
2023/12/26 03:13:46;;;;;;;2.28;0.20;;;;;;;-146.25;100.00;52595.28;2088134;28;20065;-71
2023/12/26 03:14:48;;;;;;;1.02;0.10;;;;;;;-146.25;100.00;52619.63;2088705;28;20415;-72
2023/12/26 03:15:50;;;;;;;2.10;0.20;;;;;;;-146.25;100.00;52609.50;2088375;28;20847;-72
2023/12/26 03:16:52;;;;;;;4.72;0.20;;;;;;;-146.25;100.00;52617.59;2088577;28;20864;-72
2023/12/26 03:17:54;;;;;;;2.65;0.20;;;;;;;-146.25;100.00;52611.50;2087428;28;20041;-71
2023/12/26 03:18:56;;;;;;;2.60;0.20;;;;;;;-146.25;100.00;52613.53;2087965;28;20910;-72
2023/12/26 03:19:59;;;;;;;1.92;0.20;;;;;;;-146.25;100.00;52591.25;2087234;28;20037;-72
2023/12/26 03:21:01;;;;;;;1.98;0.28;;;;;;;-146.25;100.00;52613.53;2087924;28;20065;-72
2023/12/26 03:22:04;;;;;;;2.15;0.20;;;;;;;-146.25;100.00;52633.81;2088023;28;20042;-73
2023/12/26 03:23:06;;;;;;;3.30;0.20;;;;;;;-146.25;100.00;52601.38;2087611;28;21607;-73
2023/12/26 03:24:08;;;;;;;1.50;0.20;;;;;;;-146.25;100.00;52607.47;2088095;28;20101;-73
2023/12/26 03:25:12;;;;;;;6.05;0.30;;;;;;;-146.25;100.00;52617.59;2087484;28;20901;-73
2023/12/26 03:26:16;;;;;;;2.33;0.20;;;;;;;-146.25;100.00;52643.97;2087263;28;20038;-71
2023/12/26 03:27:18;;;;;;;1.38;0.28;;;;;;;-146.25;100.00;52623.69;2087633;28;20041;-72
2023/12/26 03:28:21;;;;;;;1.90;0.30;;;;;;;-146.25;100.00;52631.78;2087522;28;21174;-73
2023/12/26 03:29:25;;;;;;;4.47;0.50;;;;;;;-146.25;100.00;52611.50;2087838;28;20892;-73
2023/12/26 03:30:29;;;;;;;3.65;0.30;;;;;;;-146.25;100.00;52658.16;2088001;28;20891;-72
2023/12/26 03:31:31;;;;;;;1.77;0.20;;;;;;;-146.25;100.00;52560.81;2088476;28;20034;-72
2023/12/26 03:32:32;;;;;;;2.92;0.20;;;;;;;-146.25;100.00;52603.41;2088028;28;20502;-73
2023/12/26 03:33:36;;;;;;;3.10;0.20;;;;;;;-146.25;100.00;52641.94;2088478;28;20034;-72
2023/12/26 03:34:37;;;;;;;2.17;0.63;;;;;;;-146.25;100.00;52631.78;2087932;28;20913;-72
2023/12/26 03:35:39;;;;;;;2.67;0.20;;;;;;;-146.25;100.00;52621.66;2088545;28;20049;-70
2023/12/26 03:36:49;;;;;;;2.58;0.20;;;;;;;-146.25;100.00;52621.66;2095877;28;20037;-72
2023/12/26 03:37:50;;;;;;;3.55;0.35;;;;;;;-146.25;100.00;52664.22;2095027;28;20041;-72
2023/12/26 03:38:52;;;;;;;8.00;0.40;;;;;;;-146.25;100.00;52619.63;2087227;28;20202;-72
2023/12/26 03:39:54;;;;;;;3.83;0.20;;;;;;;-146.25;100.00;52607.47;2087315;28;20442;-72
2023/12/26 03:40:57;;;;;;;4.53;0.43;;;;;;;-146.25;100.00;52623.69;2087846;28;24740;-72
2023/12/26 03:41:59;;;;;;;7.63;0.30;;;;;;;-146.25;100.00;52579.06;2087312;28;20163;-72
2023/12/26 03:43:01;;;;;;;3.42;0.32;;;;;;;-146.25;100.00;52601.38;2079146;28;20206;-73
2023/12/26 03:44:03;;;;;;;5.32;0.45;;;;;;;-146.25;100.00;52621.66;2087569;28;20239;-71
2023/12/26 03:45:05;;;;;;;4.25;0.30;;;;;;;-146.25;100.00;52662.22;2095358;28;20172;-72
2023/12/26 03:46:07;;;;;;;6.50;0.30;;;;;;;-146.25;100.00;52597.31;2088259;28;20041;-71
2023/12/26 03:47:12;;;;;;;5.80;0.43;;;;;;;-146.25;100.00;52627.75;2087631;28;20042;-72
2023/12/26 03:48:14;;;;;;;5.78;0.40;;;;;;;-146.25;100.00;52617.59;2087830;28;20826;-72
2023/12/26 03:49:18;;;;;;;5.90;0.40;;;;;;;-146.25;100.00;52609.50;2088344;28;20041;-72
2023/12/26 03:50:21;;;;;;;5.00;0.35;;;;;;;-146.25;100.00;52601.38;2087536;28;20037;-71
2023/12/26 03:51:23;;;;;;;5.97;0.60;;;;;;;-146.25;100.00;52611.50;2087393;28;21007;-72
2023/12/26 03:52:25;;;;;;;8.13;0.75;;;;;;;-146.25;100.00;52619.63;2088376;28;20175;-71
2023/12/26 03:53:29;;;;;;;6.63;0.75;;;;;;;-146.25;100.00;52621.66;2087290;28;20045;-72
2023/12/26 03:54:31;;;;;;;5.75;0.45;;;;;;;-146.25;100.00;52607.47;2087682;28;20156;-71
2023/12/26 03:55:34;;;;;;;7.63;0.70;;;;;;;-146.25;100.00;52643.97;2095375;28;20388;-72
2023/12/26 03:56:36;;;;;;;6.80;0.52;;;;;;;-146.25;100.00;52623.69;2096954;28;20156;-71
2023/12/26 03:57:39;;;;;;;8.35;0.68;;;;;;;-146.25;100.00;52656.13;2096865;28;20037;-72
2023/12/26 03:58:40;;;;;;;8.55;0.77;;;;;;;-146.25;100.00;52575.00;2097462;28;20152;-71
2023/12/26 03:59:45;;;;;;;6.90;0.77;;;;;;;-146.25;100.00;52611.50;2096585;28;21330;-71
2023/12/26 04:00:46;;;;;;;5.85;0.60;;;;;;;-146.25;100.00;52629.75;2089745;28;20041;-71
2023/12/26 04:01:48;;;;;;;7.22;0.80;;;;;;;-146.25;100.00;52652.06;2089256;28;21008;-72
2023/12/26 04:02:50;;;;;;;12.60;0.98;;;;;;;-146.25;100.00;52599.34;2089012;28;20045;-73
2023/12/26 04:03:53;;;;;;;8.85;0.77;;;;;;;-146.25;100.00;52617.59;2088862;28;20151;-72
2023/12/26 04:04:55;;;;;;;9.15;1.13;;;;;;;-146.25;100.00;52631.78;2097068;28;20045;-72
2023/12/26 04:05:57;;;;;;;7.93;0.70;;;;;;;-146.25;100.00;52611.50;2080548;28;20054;-72
2023/12/26 04:06:59;;;;;;;6.15;0.80;;;;;;;-146.25;100.00;52570.97;2088812;28;20048;-72
2023/12/26 04:08:03;;;;;;;10.15;0.90;;;;;;;-146.25;100.00;52631.78;2097020;28;20849;-71
2023/12/26 04:09:05;;;;;;;8.85;0.77;;;;;;;-146.25;100.00;52595.28;2088850;28;20046;-71
2023/12/26 04:10:08;;;;;;;10.15;0.93;;;;;;;-146.25;100.00;52568.94;2088538;28;20160;-72
2023/12/26 04:11:11;;;;;;;10.52;1.02;;;;;;;-146.25;100.00;52607.47;2089049;28;20126;-72
2023/12/26 04:12:13;;;;;;;7.82;0.60;;;;;;;-146.25;100.00;52639.91;2080595;28;20830;-73
2023/12/26 04:13:17;;;;;;;11.05;0.75;;;;;;;-146.25;100.00;52597.31;2089132;28;20084;-72
2023/12/26 04:14:19;;;;;;;10.48;1.05;;;;;;;-146.25;100.00;52599.34;2096923;28;20142;-72
2023/12/26 04:15:21;;;;;;;8.93;0.60;;;;;;;-146.25;100.00;52607.47;2096974;28;20836;-71
2023/12/26 04:16:25;;;;;;;14.48;1.05;;;;;;;-146.25;100.00;52607.47;2088839;28;20045;-72
2023/12/26 04:17:27;;;;;;;9.70;0.98;;;;;;;-146.25;100.00;52601.38;2080547;28;20104;-71
2023/12/26 04:18:29;;;;;;;11.18;0.93;;;;;;;-146.25;100.00;52593.25;2088628;28;20042;-72
2023/12/26 04:19:31;;;;;;;6.32;0.70;;;;;;;-146.25;100.00;52607.47;2097030;28;20794;-71
2023/12/26 04:20:33;;;;;;;5.97;0.85;;;;;;;-146.25;100.00;52639.91;2096664;28;20247;-73
2023/12/26 04:21:35;;;;;;;11.75;1.00;;;;;;;-146.25;100.00;52619.63;2089363;28;20049;-72
2023/12/26 04:22:37;;;;;;;8.80;1.23;;;;;;;-146.25;100.00;52599.34;2080415;28;20054;-72
2023/12/26 04:23:39;;;;;;;13.98;1.30;;;;;;;-146.25;100.00;52593.25;2080732;28;20038;-72
2023/12/26 04:24:42;;;;;;;12.32;1.02;;;;;;;-146.25;100.00;52635.84;2088959;28;20081;-71
2023/12/26 04:25:47;;;;;;;8.80;0.93;;;;;;;-146.25;100.00;52599.34;2096997;28;20040;-72
2023/12/26 04:26:49;;;;;;;10.38;1.10;;;;;;;-146.25;100.00;52615.56;2096657;28;20041;-72
2023/12/26 04:27:51;;;;;;;9.93;1.08;;;;;;;-146.25;100.00;52625.72;2088726;28;20038;-71
2023/12/26 04:28:53;;;;;;;12.73;1.10;;;;;;;-146.25;100.00;52603.41;2088390;28;20045;-72
2023/12/26 04:29:55;;;;;;;9.15;1.13;;;;;;;-146.25;100.00;52609.50;2088424;28;20166;-72
2023/12/26 04:30:56;;;;;;;10.45;0.60;;;;;;;-146.25;100.00;52623.69;2080357;28;20154;-72
2023/12/26 04:32:00;;;;;;;10.38;1.17;;;;;;;-146.25;100.00;52639.91;2089005;28;20069;-72
2023/12/26 04:33:02;;;;;;;13.02;1.40;;;;;;;-146.25;100.00;52579.06;2096806;28;20037;-71
2023/12/26 04:34:04;;;;;;;10.15;1.20;;;;;;;-146.25;100.00;52599.34;2080378;28;21017;-71
2023/12/26 04:35:06;;;;;;;9.63;1.10;;;;;;;-146.25;100.00;52613.53;2080980;28;20450;-72
2023/12/26 04:36:11;;;;;;;9.27;0.82;;;;;;;-146.25;100.00;52611.50;2088713;28;20172;-72
2023/12/26 04:37:13;;;;;;;8.77;0.95;;;;;;;-146.25;100.00;52607.47;2088879;28;20049;-72
2023/12/26 04:38:18;;;;;;;11.25;0.90;;;;;;;-146.25;100.00;52597.31;2088599;28;20037;-72
2023/12/26 04:39:20;;;;;;;11.80;1.20;;;;;;;-146.25;100.00;52601.38;2088242;28;20045;-71
2023/12/26 04:40:25;;;;;;;8.80;0.70;;;;;;;-146.25;100.00;52619.63;2097024;28;20033;-70
2023/12/26 04:41:27;;;;;;;7.50;0.82;;;;;;;-146.25;100.00;52595.28;2088523;28;20038;-72
2023/12/26 04:42:29;;;;;;;10.98;1.13;;;;;;;-146.25;100.00;52635.84;2080268;28;20247;-71
2023/12/26 04:43:30;;;;;;;9.50;0.82;;;;;;;-146.25;100.00;52629.75;2089644;28;21050;-72
2023/12/26 04:44:32;;;;;;;5.90;0.95;;;;;;;-146.25;100.00;52621.66;2089430;28;20163;-71
2023/12/26 04:45:38;;;;;;;11.32;0.70;;;;;;;-146.25;100.00;52629.75;2088657;28;20045;-72